Drummond Island, MI

12:33 AM EDT on March 27, 2015 (GMT -0400)
Mackinac Island | | Change Station
CLOSE
Current Station
Airport
Location: Mackinac Island,
Elevation: 741 ft
Nearby Weather Stations

Elev 741 ft 45.87 °N, 84.64 °W | Updated 18 minutes ago

Haze
Haze
18 °F
Feels Like 4 °F
N
15
Wind Variable Wind from NNW
Gusts 23 mph

Today
High -- | Low -- °F
--% Chance of Precip.
Yesterday
High -- | Low -- °F
Precip. -- in
7:24 AM 7:56 PM
Waxing Crescent, 49% visible
Pressure 30.01 in
Visibility 5.0 miles
Clouds Scattered Clouds 1400 ft
Mostly Cloudy 3200 ft
Overcast 5500 ft
Windchill 4 °F
Dew Point 13 °F
Humidity 80%
Rainfall 0.00 in
Snow Depth Not available.
UV 0 out of 12
Pollen 3.10 out of 12
Air Quality Not available.
Flu Activity Not available.
METAR KMCD 270415Z AUTO 34013G20KT 5SM HZ SCT014 BKN032 OVC055 M08/M10 A3001 RMK AO2 T10761105

More Conditions Fewer Conditions

Pressure 30.01 in
Visibility 5.0 miles
Clouds Scattered Clouds 1400 ft
Mostly Cloudy 3200 ft
Overcast 5500 ft
Windchill 4 °F
Dew Point 13 °F
Humidity 80%
Rainfall 0.00 in
Snow Depth Not available.
UV 0 out of 12
Pollen 3.10 out of 12
Air Quality Not available.
Flu Activity Not available.
METAR KMCD 270415Z AUTO 34013G20KT 5SM HZ SCT014 BKN032 OVC055 M08/M10 A3001 RMK AO2 T10761105

More Conditions Fewer Conditions

Nowcast | as of 12:00 am EDT on March 27, 2015

At 1 am...snow showers likely. Temperature 17. North winds 11 mph. At 3 am...partly cloudy. Temperature 13. North winds 10 mph. Wind chill zero. At 5 am...partly cloudy. Temperature 10 above. North winds 9 mph. At 7 am...mostly clear. Temperature 6 above. Southeast winds 8 mph.

×

10-Day Weather Forecast

Almanac

Astronomy

Mar. 27, 2015 Rise Set
Actual Time
Civil Twilight
Nautical Twilight
Astronomical Twilight
Moon
Length of Visible Light
Length of Day
Tomorrow will be .
, % of the Moon is Illuminated

Today's Extremes

State Highs State Lows

Community

WunderPhotos

Upload Photos

1,808,706 photos uploaded!

WunderBlogs® & News

Nearby

Air Quality

  Air Quality AQ Index Pollutant
Not available.

Snow Depth

Station Depth Elevation

Earthquake Activity

City Distance Mag. Time & Date
Minimum magnitude displayed is 2.5.

Coastal Water Temperatures

Place Temperature

Stations

Nearby Weather Stations

Station Location Temp. Windchill Dew Point Humidity Wind Precip. Elev Updated Type